sensor_id;sensor_type;location;lat;lon;timestamp;pressure;altitude;pressure_sealevel;temperature;humidity
74544;BME280;63016;55.030;38.710;2023-02-15T00:01:39;100040.03;;;0.55;64.80
74544;BME280;63016;55.030;38.710;2023-02-15T00:04:06;100057.91;;;0.57;64.89
74544;BME280;63016;55.030;38.710;2023-02-15T00:06:32;100055.44;;;0.55;64.52
74544;BME280;63016;55.030;38.710;2023-02-15T00:08:58;100058.00;;;0.55;64.66
74544;BME280;63016;55.030;38.710;2023-02-15T00:11:24;100058.81;;;0.56;64.88
74544;BME280;63016;55.030;38.710;2023-02-15T00:14:16;100056.38;;;0.54;64.64
74544;BME280;63016;55.030;38.710;2023-02-15T00:16:43;100064.97;;;0.53;64.53
74544;BME280;63016;55.030;38.710;2023-02-15T00:19:11;100058.19;;;0.52;65.12
74544;BME280;63016;55.030;38.710;2023-02-15T00:21:38;100069.38;;;0.51;64.79
74544;BME280;63016;55.030;38.710;2023-02-15T00:24:05;100066.09;;;0.49;64.41
74544;BME280;63016;55.030;38.710;2023-02-15T00:26:32;100066.94;;;0.49;64.47
74544;BME280;63016;55.030;38.710;2023-02-15T00:28:58;100075.56;;;0.48;64.57
74544;BME280;63016;55.030;38.710;2023-02-15T00:31:24;100073.00;;;0.48;64.68
74544;BME280;63016;55.030;38.710;2023-02-15T00:33:50;100073.81;;;0.49;64.71
74544;BME280;63016;55.030;38.710;2023-02-15T00:36:16;100072.25;;;0.46;64.83
74544;BME280;63016;55.030;38.710;2023-02-15T00:38:41;100079.13;;;0.46;64.47
74544;BME280;63016;55.030;38.710;2023-02-15T00:41:08;100067.94;;;0.47;65.11
74544;BME280;63016;55.030;38.710;2023-02-15T00:43:35;100078.31;;;0.45;64.90
74544;BME280;63016;55.030;38.710;2023-02-15T00:46:02;100076.66;;;0.44;64.38
74544;BME280;63016;55.030;38.710;2023-02-15T00:48:28;100085.38;;;0.42;64.78
74544;BME280;63016;55.030;38.710;2023-02-15T00:50:56;100082.78;;;0.42;65.24
74544;BME280;63016;55.030;38.710;2023-02-15T00:53:23;100077.88;;;0.39;64.59
74544;BME280;63016;55.030;38.710;2023-02-15T00:55:49;100081.34;;;0.38;64.61
74544;BME280;63016;55.030;38.710;2023-02-15T00:58:15;100088.31;;;0.36;65.29
74544;BME280;63016;55.030;38.710;2023-02-15T01:00:42;100086.69;;;0.35;64.99
74544;BME280;63016;55.030;38.710;2023-02-15T01:03:08;100089.31;;;0.33;64.36
74544;BME280;63016;55.030;38.710;2023-02-15T01:05:34;100085.41;;;0.28;64.74
74544;BME280;63016;55.030;38.710;2023-02-15T01:07:59;100082.13;;;0.25;65.24
74544;BME280;63016;55.030;38.710;2023-02-15T01:10:26;100094.84;;;0.27;64.46
74544;BME280;63016;55.030;38.710;2023-02-15T01:12:52;100099.97;;;0.27;65.08
74544;BME280;63016;55.030;38.710;2023-02-15T01:15:18;100096.59;;;0.27;64.83
74544;BME280;63016;55.030;38.710;2023-02-15T01:17:44;100103.66;;;0.23;65.24
74544;BME280;63016;55.030;38.710;2023-02-15T01:20:17;100098.50;;;0.23;64.69
74544;BME280;63016;55.030;38.710;2023-02-15T01:22:42;100101.19;;;0.21;64.84
74544;BME280;63016;55.030;38.710;2023-02-15T01:25:08;100108.97;;;0.20;65.00
74544;BME280;63016;55.030;38.710;2023-02-15T01:27:33;100103.84;;;0.20;65.43
74544;BME280;63016;55.030;38.710;2023-02-15T01:29:59;100103.84;;;0.20;65.45
74544;BME280;63016;55.030;38.710;2023-02-15T01:32:24;100100.34;;;0.21;65.03
74544;BME280;63016;55.030;38.710;2023-02-15T01:34:50;100106.41;;;0.20;65.24
74544;BME280;63016;55.030;38.710;2023-02-15T01:37:15;100106.50;;;0.18;65.05
74544;BME280;63016;55.030;38.710;2023-02-15T01:39:41;100100.66;;;0.16;65.13
74544;BME280;63016;55.030;38.710;2023-02-15T01:42:10;100117.78;;;0.16;65.34
74544;BME280;63016;55.030;38.710;2023-02-15T01:44:51;100121.16;;;0.16;64.83
74544;BME280;63016;55.030;38.710;2023-02-15T01:47:39;100112.66;;;0.16;64.69
74544;BME280;63016;55.030;38.710;2023-02-15T01:53:01;100115.66;;;0.08;64.88
74544;BME280;63016;55.030;38.710;2023-02-15T01:55:33;100114.19;;;0.04;64.77
74544;BME280;63016;55.030;38.710;2023-02-15T01:58:00;100118.34;;;0.07;65.40
74544;BME280;63016;55.030;38.710;2023-02-15T02:00:26;100115.88;;;0.05;64.53
74544;BME280;63016;55.030;38.710;2023-02-15T02:02:54;100119.34;;;0.04;64.78
74544;BME280;63016;55.030;38.710;2023-02-15T02:05:20;100113.38;;;0.04;65.08
74544;BME280;63016;55.030;38.710;2023-02-15T02:07:46;100119.44;;;0.03;64.91
74544;BME280;63016;55.030;38.710;2023-02-15T02:10:16;100131.44;;;0.02;64.90
74544;BME280;63016;55.030;38.710;2023-02-15T02:12:44;100130.63;;;0.02;64.61
74544;BME280;63016;55.030;38.710;2023-02-15T02:15:10;100124.56;;;0.03;64.86
74544;BME280;63016;55.030;38.710;2023-02-15T02:29:16;100133.56;;;-0.05;65.23
74544;BME280;63016;55.030;38.710;2023-02-15T02:35:22;100145.72;;;-0.08;64.70
74544;BME280;63016;55.030;38.710;2023-02-15T02:38:08;100145.47;;;-0.04;65.17
74544;BME280;63016;55.030;38.710;2023-02-15T02:41:06;100153.34;;;-0.07;64.99
74544;BME280;63016;55.030;38.710;2023-02-15T02:43:48;100155.78;;;-0.05;65.30
74544;BME280;63016;55.030;38.710;2023-02-15T02:46:28;100148.09;;;-0.05;64.99
74544;BME280;63016;55.030;38.710;2023-02-15T02:48:55;100153.16;;;-0.04;65.22
74544;BME280;63016;55.030;38.710;2023-02-15T02:51:21;100150.75;;;-0.07;65.10
74544;BME280;63016;55.030;38.710;2023-02-15T02:53:51;100162.59;;;-0.04;64.97
74544;BME280;63016;55.030;38.710;2023-02-15T02:56:21;100149.78;;;-0.04;64.63
74544;BME280;63016;55.030;38.710;2023-02-15T03:01:54;100148.09;;;-0.05;65.03
74544;BME280;63016;55.030;38.710;2023-02-15T03:04:26;100147.28;;;-0.06;65.26
74544;BME280;63016;55.030;38.710;2023-02-15T03:07:00;100150.75;;;-0.07;64.70
74544;BME280;63016;55.030;38.710;2023-02-15T03:09:50;100148.94;;;-0.05;64.79
74544;BME280;63016;55.030;38.710;2023-02-15T03:12:20;100146.47;;;-0.06;65.23
74544;BME280;63016;55.030;38.710;2023-02-15T03:14:57;100154.09;;;-0.05;65.16
74544;BME280;63016;55.030;38.710;2023-02-15T03:17:27;100156.72;;;-0.06;64.89
74544;BME280;63016;55.030;38.710;2023-02-15T03:19:57;100162.59;;;-0.04;64.70
74544;BME280;63016;55.030;38.710;2023-02-15T03:22:30;100160.91;;;-0.05;65.16
74544;BME280;63016;55.030;38.710;2023-02-15T03:25:19;100169.47;;;-0.05;64.59
74544;BME280;63016;55.030;38.710;2023-02-15T03:27:49;100165.34;;;-0.07;64.55
74544;BME280;63016;55.030;38.710;2023-02-15T03:30:20;100169.53;;;-0.06;65.03
74544;BME280;63016;55.030;38.710;2023-02-15T03:32:48;100171.19;;;-0.05;64.92
74544;BME280;63016;55.030;38.710;2023-02-15T03:35:15;100169.53;;;-0.06;64.28
74544;BME280;63016;55.030;38.710;2023-02-15T03:37:47;100178.16;;;-0.07;64.17
74544;BME280;63016;55.030;38.710;2023-02-15T03:45:59;100177.16;;;-0.05;64.80
74544;BME280;63016;55.030;38.710;2023-02-15T03:48:31;100179.78;;;-0.06;64.57
74544;BME280;63016;55.030;38.710;2023-02-15T03:51:02;100185.03;;;-0.08;64.46
74544;BME280;63016;55.030;38.710;2023-02-15T03:53:48;100180.63;;;-0.06;64.55
74544;BME280;63016;55.030;38.710;2023-02-15T03:56:15;100190.06;;;-0.06;64.86
74544;BME280;63016;55.030;38.710;2023-02-15T03:58:41;100188.41;;;-0.07;64.78
74544;BME280;63016;55.030;38.710;2023-02-15T04:01:38;100184.28;;;-0.10;64.29
74544;BME280;63016;55.030;38.710;2023-02-15T04:04:41;100198.56;;;-0.06;64.39
74544;BME280;63016;55.030;38.710;2023-02-15T04:07:09;100184.47;;;-0.13;64.41
74544;BME280;63016;55.030;38.710;2023-02-15T04:09:35;100192.06;;;-0.11;65.05
74544;BME280;63016;55.030;38.710;2023-02-15T04:12:19;100195.56;;;-0.12;64.71
74544;BME280;63016;55.030;38.710;2023-02-15T04:14:44;100188.78;;;-0.13;64.96
74544;BME280;63016;55.030;38.710;2023-02-15T04:17:29;100192.91;;;-0.11;65.09
74544;BME280;63016;55.030;38.710;2023-02-15T04:19:54;100196.38;;;-0.12;64.35
74544;BME280;63016;55.030;38.710;2023-02-15T04:22:38;100188.94;;;-0.16;65.03
74544;BME280;63016;55.030;38.710;2023-02-15T04:25:23;100193.00;;;-0.12;64.43
74544;BME280;63016;55.030;38.710;2023-02-15T04:27:50;100196.47;;;-0.13;65.01
74544;BME280;63016;55.030;38.710;2023-02-15T04:30:18;100200.69;;;-0.12;64.39
74544;BME280;63016;55.030;38.710;2023-02-15T04:32:44;100194.63;;;-0.11;64.33
74544;BME280;63016;55.030;38.710;2023-02-15T04:35:10;100203.16;;;-0.11;64.58
74544;BME280;63016;55.030;38.710;2023-02-15T04:37:36;100194.63;;;-0.11;64.54
74544;BME280;63016;55.030;38.710;2023-02-15T04:40:03;100192.28;;;-0.14;64.35
74544;BME280;63016;55.030;38.710;2023-02-15T04:42:29;100198.56;;;-0.20;64.15
74544;BME280;63016;55.030;38.710;2023-02-15T04:44:54;100199.97;;;-0.14;64.46
74544;BME280;63016;55.030;38.710;2023-02-15T04:47:20;100195.00;;;-0.17;64.43
74544;BME280;63016;55.030;38.710;2023-02-15T04:49:45;100199.22;;;-0.16;64.86
74544;BME280;63016;55.030;38.710;2023-02-15T04:52:12;100204.34;;;-0.16;64.20
74544;BME280;63016;55.030;38.710;2023-02-15T04:54:37;100196.66;;;-0.16;64.51
74544;BME280;63016;55.030;38.710;2023-02-15T04:57:03;100196.66;;;-0.16;64.03
74544;BME280;63016;55.030;38.710;2023-02-15T04:59:29;100202.69;;;-0.17;64.33
74544;BME280;63016;55.030;38.710;2023-02-15T05:01:54;100210.22;;;-0.14;64.10
74544;BME280;63016;55.030;38.710;2023-02-15T05:04:20;100211.88;;;-0.13;64.52
74544;BME280;63016;55.030;38.710;2023-02-15T05:06:45;100210.28;;;-0.16;64.21
74544;BME280;63016;55.030;38.710;2023-02-15T05:09:12;100211.13;;;-0.15;64.38
74544;BME280;63016;55.030;38.710;2023-02-15T05:11:37;100207.66;;;-0.14;64.06
74544;BME280;63016;55.030;38.710;2023-02-15T05:14:03;100215.41;;;-0.16;64.66
74544;BME280;63016;55.030;38.710;2023-02-15T05:16:29;100218.91;;;-0.17;64.31
74544;BME280;63016;55.030;38.710;2023-02-15T05:18:55;100214.59;;;-0.16;64.04
74544;BME280;63016;55.030;38.710;2023-02-15T05:21:20;100214.59;;;-0.16;64.71
74544;BME280;63016;55.030;38.710;2023-02-15T05:23:46;100216.34;;;-0.17;64.39
74544;BME280;63016;55.030;38.710;2023-02-15T05:26:12;100218.91;;;-0.17;64.24
74544;BME280;63016;55.030;38.710;2023-02-15T05:28:56;100220.56;;;-0.16;64.02
74544;BME280;63016;55.030;38.710;2023-02-15T05:31:22;100216.25;;;-0.15;64.26
74544;BME280;63016;55.030;38.710;2023-02-15T05:33:47;100216.25;;;-0.15;64.35
74544;BME280;63016;55.030;38.710;2023-02-15T05:36:13;100221.38;;;-0.15;64.53
74544;BME280;63016;55.030;38.710;2023-02-15T05:38:39;100219.63;;;-0.15;64.49
74544;BME280;63016;55.030;38.710;2023-02-15T05:41:09;100224.69;;;-0.13;64.84
74544;BME280;63016;55.030;38.710;2023-02-15T05:43:35;100222.94;;;-0.13;64.47
74544;BME280;63016;55.030;38.710;2023-02-15T05:46:01;100216.25;;;-0.15;64.55
74544;BME280;63016;55.030;38.710;2023-02-15T05:48:27;100218.38;;;-0.08;64.58
74544;BME280;63016;55.030;38.710;2023-02-15T05:51:04;100220.78;;;-0.05;64.20
74544;BME280;63016;55.030;38.710;2023-02-15T05:53:32;100227.63;;;-0.05;64.65
74544;BME280;63016;55.030;38.710;2023-02-15T05:55:58;100234.22;;;-0.01;64.35
74544;BME280;63016;55.030;38.710;2023-02-15T05:58:30;100232.41;;;0.01;64.52
74544;BME280;63016;55.030;38.710;2023-02-15T06:00:56;100234.06;;;0.02;64.87
74544;BME280;63016;55.030;38.710;2023-02-15T06:03:22;100232.47;;;-0.01;64.11
74544;BME280;63016;55.030;38.710;2023-02-15T06:05:48;100240.94;;;0.02;64.46
74544;BME280;63016;55.030;38.710;2023-02-15T06:08:14;100248.53;;;0.03;64.53
74544;BME280;63016;55.030;38.710;2023-02-15T06:10:40;100244.31;;;0.02;64.40
74544;BME280;63016;55.030;38.710;2023-02-15T06:13:06;100240.81;;;0.03;64.79
74544;BME280;63016;55.030;38.710;2023-02-15T06:15:32;100254.19;;;0.08;64.39
74544;BME280;63016;55.030;38.710;2023-02-15T06:17:57;100242.47;;;0.04;64.48
74544;BME280;63016;55.030;38.710;2023-02-15T06:20:23;100251.63;;;0.08;64.74
74544;BME280;63016;55.030;38.710;2023-02-15T06:22:48;100254.97;;;0.10;64.83
74544;BME280;63016;55.030;38.710;2023-02-15T06:25:14;100257.53;;;0.10;64.75
74544;BME280;63016;55.030;38.710;2023-02-15T06:27:43;100256.59;;;0.11;64.30
74544;BME280;63016;55.030;38.710;2023-02-15T06:30:09;100251.38;;;0.13;64.35
74544;BME280;63016;55.030;38.710;2023-02-15T06:32:35;100262.28;;;0.16;64.18
74544;BME280;63016;55.030;38.710;2023-02-15T06:35:01;100259.72;;;0.16;63.93
74544;BME280;63016;55.030;38.710;2023-02-15T06:37:26;100251.19;;;0.16;64.56
74544;BME280;63016;55.030;38.710;2023-02-15T06:39:52;100256.22;;;0.17;64.58
74544;BME280;63016;55.030;38.710;2023-02-15T06:42:18;100257.16;;;0.16;64.67
74544;BME280;63016;55.030;38.710;2023-02-15T06:44:44;100248.72;;;0.14;64.61
74544;BME280;63016;55.030;38.710;2023-02-15T06:47:10;100258.91;;;0.16;63.86
74544;BME280;63016;55.030;38.710;2023-02-15T06:49:36;100253.66;;;0.17;64.17
74544;BME280;63016;55.030;38.710;2023-02-15T06:52:02;100258.81;;;0.17;64.14
74544;BME280;63016;55.030;38.710;2023-02-15T06:54:28;100261.25;;;0.19;64.12
74544;BME280;63016;55.030;38.710;2023-02-15T06:56:53;100266.50;;;0.17;64.11
74544;BME280;63016;55.030;38.710;2023-02-15T06:59:19;100267.41;;;0.16;64.65
74544;BME280;63016;55.030;38.710;2023-02-15T07:01:44;100270.91;;;0.15;64.35
74544;BME280;63016;55.030;38.710;2023-02-15T07:04:10;100271.63;;;0.17;63.89
74544;BME280;63016;55.030;38.710;2023-02-15T07:06:35;100276.75;;;0.17;64.62
74544;BME280;63016;55.030;38.710;2023-02-15T07:09:01;100272.56;;;0.16;64.62
74544;BME280;63016;55.030;38.710;2023-02-15T07:11:27;100269.97;;;0.16;64.88
74544;BME280;63016;55.030;38.710;2023-02-15T07:14:10;100274.09;;;0.19;64.97
74544;BME280;63016;55.030;38.710;2023-02-15T07:16:36;100270.72;;;0.18;64.86
74544;BME280;63016;55.030;38.710;2023-02-15T07:19:02;100263.75;;;0.20;64.98
74544;BME280;63016;55.030;38.710;2023-02-15T07:21:27;100266.94;;;0.24;64.79
74544;BME280;63016;55.030;38.710;2023-02-15T07:23:56;100265.03;;;0.28;65.29
74544;BME280;63016;55.030;38.710;2023-02-15T07:26:23;100268.25;;;0.31;64.80
74544;BME280;63016;55.030;38.710;2023-02-15T07:28:48;100263.03;;;0.33;65.33
74544;BME280;63016;55.030;38.710;2023-02-15T07:31:14;100264.50;;;0.37;64.79
74544;BME280;63016;55.030;38.710;2023-02-15T07:33:40;100268.53;;;0.41;65.39
74544;BME280;63016;55.030;38.710;2023-02-15T07:36:06;100270.19;;;0.42;65.03
74544;BME280;63016;55.030;38.710;2023-02-15T07:38:34;100261.47;;;0.44;65.16
74544;BME280;63016;55.030;38.710;2023-02-15T07:41:05;100257.81;;;0.48;65.04
74544;BME280;63016;55.030;38.710;2023-02-15T07:43:34;100266.25;;;0.50;65.40
74544;BME280;63016;55.030;38.710;2023-02-15T07:46:10;100267.78;;;0.53;65.55
74544;BME280;63016;55.030;38.710;2023-02-15T07:48:37;100261.00;;;0.52;65.37
74544;BME280;63016;55.030;38.710;2023-02-15T07:51:05;100269.34;;;0.56;65.35
74544;BME280;63016;55.030;38.710;2023-02-15T07:53:31;100271.81;;;0.57;64.94
74544;BME280;63016;55.030;38.710;2023-02-15T07:56:01;100271.81;;;0.57;65.02
74544;BME280;63016;55.030;38.710;2023-02-15T07:58:27;100275.13;;;0.59;65.20
74544;BME280;63016;55.030;38.710;2023-02-15T08:01:14;100276.69;;;0.62;65.30
74544;BME280;63016;55.030;38.710;2023-02-15T08:03:39;100269.63;;;0.65;65.00
74544;BME280;63016;55.030;38.710;2023-02-15T08:06:05;100274.94;;;0.62;64.73
74544;BME280;63016;55.030;38.710;2023-02-15T08:08:33;100284.84;;;0.68;64.68
74544;BME280;63016;55.030;38.710;2023-02-15T08:14:20;100283.84;;;0.71;64.69
74544;BME280;63016;55.030;38.710;2023-02-15T08:19:16;100295.84;;;0.70;64.72
74544;BME280;63016;55.030;38.710;2023-02-15T08:21:44;100297.41;;;0.73;64.94
74544;BME280;63016;55.030;38.710;2023-02-15T08:24:12;100305.94;;;0.73;65.27
74544;BME280;63016;55.030;38.710;2023-02-15T08:26:39;100301.34;;;0.79;65.13
74544;BME280;63016;55.030;38.710;2023-02-15T08:29:05;100305.47;;;0.81;64.86
74544;BME280;63016;55.030;38.710;2023-02-15T08:31:32;100306.94;;;0.85;64.90
74544;BME280;63016;55.030;38.710;2023-02-15T08:33:58;100296.56;;;0.87;65.35
74544;BME280;63016;55.030;38.710;2023-02-15T08:36:28;100305.94;;;0.88;65.50
74544;BME280;63016;55.030;38.710;2023-02-15T08:38:56;100303.16;;;0.91;64.83
74544;BME280;63016;55.030;38.710;2023-02-15T08:41:28;100303.63;;;0.97;65.29
74544;BME280;63016;55.030;38.710;2023-02-15T08:43:59;100308.56;;;1.00;65.10
74544;BME280;63016;55.030;38.710;2023-02-15T08:46:27;100300.78;;;1.02;65.27
74544;BME280;63016;55.030;38.710;2023-02-15T08:48:54;100307.47;;;1.05;65.57
74544;BME280;63016;55.030;38.710;2023-02-15T08:51:28;100313.97;;;1.10;65.21
74544;BME280;63016;55.030;38.710;2023-02-15T08:53:57;100315.53;;;1.13;64.60
74544;BME280;63016;55.030;38.710;2023-02-15T08:56:29;100319.84;;;1.12;65.13
74544;BME280;63016;55.030;38.710;2023-02-15T08:58:55;100322.31;;;1.14;64.36
74544;BME280;63016;55.030;38.710;2023-02-15T09:01:26;100317.06;;;1.15;64.48
74544;BME280;63016;55.030;38.710;2023-02-15T09:04:00;100322.97;;;1.17;64.77
74544;BME280;63016;55.030;38.710;2023-02-15T09:06:26;100321.94;;;1.20;65.19
74544;BME280;63016;55.030;38.710;2023-02-15T09:08:53;100332.97;;;1.22;65.04
74544;BME280;63016;55.030;38.710;2023-02-15T09:11:22;100332.03;;;1.23;64.77
74544;BME280;63016;55.030;38.710;2023-02-15T09:13:51;100331.84;;;1.26;65.26
74544;BME280;63016;55.030;38.710;2023-02-15T09:16:19;100329.72;;;1.33;65.56
74544;BME280;63016;55.030;38.710;2023-02-15T09:18:46;100328.78;;;1.34;65.09
74544;BME280;63016;55.030;38.710;2023-02-15T09:21:14;100327.69;;;1.38;65.02
74544;BME280;63016;55.030;38.710;2023-02-15T09:23:40;100326.03;;;1.37;65.21
74544;BME280;63016;55.030;38.710;2023-02-15T09:26:09;100342.81;;;1.42;64.90
74544;BME280;63016;55.030;38.710;2023-02-15T09:28:35;100335.81;;;1.44;64.72
74544;BME280;63016;55.030;38.710;2023-02-15T09:31:20;100344.81;;;1.51;65.03
74544;BME280;63016;55.030;38.710;2023-02-15T09:33:48;100346.16;;;1.57;65.18
74544;BME280;63016;55.030;38.710;2023-02-15T09:36:19;100348.28;;;1.65;65.29
74544;BME280;63016;55.030;38.710;2023-02-15T09:38:52;100352.19;;;1.70;65.40
74544;BME280;63016;55.030;38.710;2023-02-15T09:41:30;100345.09;;;1.74;65.26
74544;BME280;63016;55.030;38.710;2023-02-15T09:52:52;100360.09;;;1.67;64.54
74544;BME280;63016;55.030;38.710;2023-02-15T10:03:42;100368.38;;;1.58;64.47
74544;BME280;63016;55.030;38.710;2023-02-15T10:28:04;100372.38;;;1.76;65.04
74544;BME280;63016;55.030;38.710;2023-02-15T10:30:49;100375.47;;;1.82;65.06
74544;BME280;63016;55.030;38.710;2023-02-15T10:36:12;100375.28;;;1.85;64.65
74544;BME280;63016;55.030;38.710;2023-02-15T10:44:45;100375.06;;;1.88;64.65
74544;BME280;63016;55.030;38.710;2023-02-15T10:47:22;100381.69;;;1.92;64.91
74544;BME280;63016;55.030;38.710;2023-02-15T10:52:39;100395.28;;;1.94;64.72
74544;BME280;63016;55.030;38.710;2023-02-15T11:01:44;100392.28;;;1.87;64.01
74544;BME280;63016;55.030;38.710;2023-02-15T11:07:03;100398.63;;;1.82;64.45
74544;BME280;63016;55.030;38.710;2023-02-15T11:09:38;100399.66;;;1.79;64.30
74544;BME280;63016;55.030;38.710;2023-02-15T11:12:11;100406.47;;;1.80;64.57
74544;BME280;63016;55.030;38.710;2023-02-15T11:14:46;100411.59;;;1.80;64.46
74544;BME280;63016;55.030;38.710;2023-02-15T11:17:18;100412.59;;;1.77;64.20
74544;BME280;63016;55.030;38.710;2023-02-15T11:20:04;100415.19;;;1.77;64.26
74544;BME280;63016;55.030;38.710;2023-02-15T11:22:33;100419.59;;;1.75;64.69
74544;BME280;63016;55.030;38.710;2023-02-15T11:25:01;100417.22;;;1.72;64.33
74544;BME280;63016;55.030;38.710;2023-02-15T11:27:31;100422.19;;;1.75;64.32
74544;BME280;63016;55.030;38.710;2023-02-15T11:30:13;100429.97;;;1.74;64.14
74544;BME280;63016;55.030;38.710;2023-02-15T11:32:40;100428.44;;;1.71;64.20
74544;BME280;63016;55.030;38.710;2023-02-15T11:37:55;100433.03;;;1.66;64.00
74544;BME280;63016;55.030;38.710;2023-02-15T11:40:31;100439.13;;;1.65;64.21
74544;BME280;63016;55.030;38.710;2023-02-15T11:45:45;100450.69;;;1.58;64.28
74544;BME280;63016;55.030;38.710;2023-02-15T11:48:12;100440.59;;;1.55;64.37
74544;BME280;63016;55.030;38.710;2023-02-15T11:50:39;100441.50;;;1.54;64.49
74544;BME280;63016;55.030;38.710;2023-02-15T11:53:15;100441.59;;;1.52;64.11
74544;BME280;63016;55.030;38.710;2023-02-15T11:55:43;100448.59;;;1.50;64.36
74544;BME280;63016;55.030;38.710;2023-02-15T12:00:53;100447.13;;;1.46;63.63
74544;BME280;63016;55.030;38.710;2023-02-15T12:06:25;100455.50;;;1.36;64.01
74544;BME280;63016;55.030;38.710;2023-02-15T12:09:06;100468.25;;;1.37;64.17
74544;BME280;63016;55.030;38.710;2023-02-15T12:11:40;100465.78;;;1.36;63.93
74544;BME280;63016;55.030;38.710;2023-02-15T12:14:12;100474.50;;;1.33;64.29
74544;BME280;63016;55.030;38.710;2023-02-15T12:16:48;100469.34;;;1.33;64.01
74544;BME280;63016;55.030;38.710;2023-02-15T12:21:49;100489.81;;;1.35;63.53
74544;BME280;63016;55.030;38.710;2023-02-15T12:24:38;100481.38;;;1.33;63.61
74544;BME280;63016;55.030;38.710;2023-02-15T12:27:15;100486.97;;;1.39;63.86
74544;BME280;63016;55.030;38.710;2023-02-15T12:29:55;100488.38;;;1.31;63.62
74544;BME280;63016;55.030;38.710;2023-02-15T12:32:26;100492.03;;;1.26;63.91
74544;BME280;63016;55.030;38.710;2023-02-15T12:34:59;100495.72;;;1.22;63.49
74544;BME280;63016;55.030;38.710;2023-02-15T12:37:28;100495.97;;;1.18;63.83
74544;BME280;63016;55.030;38.710;2023-02-15T12:39:59;100498.53;;;1.18;64.02
74544;BME280;63016;55.030;38.710;2023-02-15T12:42:27;100506.38;;;1.16;63.30
74544;BME280;63016;55.030;38.710;2023-02-15T12:45:20;100505.59;;;1.14;63.88
74544;BME280;63016;55.030;38.710;2023-02-15T12:47:48;100515.97;;;1.13;63.76
74544;BME280;63016;55.030;38.710;2023-02-15T12:50:32;100512.59;;;1.12;63.11
74544;BME280;63016;55.030;38.710;2023-02-15T12:55:56;100514.69;;;1.06;63.91
74544;BME280;63016;55.030;38.710;2023-02-15T12:58:24;100517.34;;;1.04;63.29
74544;BME280;63016;55.030;38.710;2023-02-15T13:01:10;100523.31;;;1.05;63.38
74544;BME280;63016;55.030;38.710;2023-02-15T13:03:57;100525.22;;;1.01;64.39
74544;BME280;63016;55.030;38.710;2023-02-15T13:06:23;100523.47;;;1.01;63.88
74544;BME280;63016;55.030;38.710;2023-02-15T13:08:51;100526.25;;;0.98;63.65
74544;BME280;63016;55.030;38.710;2023-02-15T13:11:36;100542.47;;;0.99;63.84
74544;BME280;63016;55.030;38.710;2023-02-15T13:16:46;100541.91;;;0.94;63.73
74544;BME280;63016;55.030;38.710;2023-02-15T13:19:22;100538.88;;;0.87;63.42
74544;BME280;63016;55.030;38.710;2023-02-15T13:21:55;100549.06;;;0.89;63.92
74544;BME280;63016;55.030;38.710;2023-02-15T13:24:33;100553.38;;;0.88;63.80
74544;BME280;63016;55.030;38.710;2023-02-15T13:27:01;100553.44;;;0.87;63.10
74544;BME280;63016;55.030;38.710;2023-02-15T13:29:33;100556.09;;;0.85;63.30
74544;BME280;63016;55.030;38.710;2023-02-15T13:32:12;100558.78;;;0.84;63.12
74544;BME280;63016;55.030;38.710;2023-02-15T13:34:40;100552.97;;;0.80;63.67
74544;BME280;63016;55.030;38.710;2023-02-15T13:37:38;100554.72;;;0.80;63.63
74544;BME280;63016;55.030;38.710;2023-02-15T13:42:53;100561.84;;;0.74;63.47
74544;BME280;63016;55.030;38.710;2023-02-15T13:56:21;100571.66;;;0.68;63.10
74544;BME280;63016;55.030;38.710;2023-02-15T14:08:14;100583.25;;;0.59;63.32
74544;BME280;63016;55.030;38.710;2023-02-15T14:13:44;100587.72;;;0.56;62.79
74544;BME280;63016;55.030;38.710;2023-02-15T14:16:19;100592.97;;;0.54;62.88
74544;BME280;63016;55.030;38.710;2023-02-15T14:18:56;100596.41;;;0.53;62.81
74544;BME280;63016;55.030;38.710;2023-02-15T14:21:31;100591.28;;;0.53;62.77
74544;BME280;63016;55.030;38.710;2023-02-15T14:29:35;100604.31;;;0.50;63.13
74544;BME280;63016;55.030;38.710;2023-02-15T14:32:09;100597.69;;;0.46;63.58
74544;BME280;63016;55.030;38.710;2023-02-15T14:34:41;100612.25;;;0.45;63.16
74544;BME280;63016;55.030;38.710;2023-02-15T14:37:11;100614.91;;;0.44;62.73
74544;BME280;63016;55.030;38.710;2023-02-15T14:39:51;100615.16;;;0.39;63.47
74544;BME280;63016;55.030;38.710;2023-02-15T14:43:01;100615.22;;;0.38;63.60
74544;BME280;63016;55.030;38.710;2023-02-15T14:45:40;100622.78;;;0.41;63.23
74544;BME280;63016;55.030;38.710;2023-02-15T14:48:18;100622.94;;;0.38;62.97
74544;BME280;63016;55.030;38.710;2023-02-15T14:50:47;100623.34;;;0.30;63.07
74544;BME280;63016;55.030;38.710;2023-02-15T15:01:30;100642.41;;;0.26;62.67
74544;BME280;63016;55.030;38.710;2023-02-15T15:04:09;100646.13;;;0.20;62.19
74544;BME280;63016;55.030;38.710;2023-02-15T15:06:40;100651.25;;;0.20;62.80
74544;BME280;63016;55.030;38.710;2023-02-15T15:09:11;100654.78;;;0.18;63.20
74544;BME280;63016;55.030;38.710;2023-02-15T15:14:03;100650.72;;;0.14;62.67
74544;BME280;63016;55.030;38.710;2023-02-15T15:18:58;100656.09;;;0.09;62.88
74544;BME280;63016;55.030;38.710;2023-02-15T15:27:40;100666.34;;;0.09;63.27
74544;BME280;63016;55.030;38.710;2023-02-15T15:37:46;100671.47;;;-0.07;62.78
74544;BME280;63016;55.030;38.710;2023-02-15T15:48:30;100679.97;;;-0.06;62.90
74544;BME280;63016;55.030;38.710;2023-02-15T15:53:45;100691.28;;;-0.10;63.17
74544;BME280;63016;55.030;38.710;2023-02-15T15:56:23;100699.16;;;-0.13;63.33
74544;BME280;63016;55.030;38.710;2023-02-15T15:58:54;100699.16;;;-0.13;62.58
74544;BME280;63016;55.030;38.710;2023-02-15T16:01:29;100701.88;;;-0.16;62.95
74544;BME280;63016;55.030;38.710;2023-02-15T16:03:57;100696.88;;;-0.19;63.05
74544;BME280;63016;55.030;38.710;2023-02-15T16:09:31;100714.84;;;-0.19;63.22